AYNZ/LAE METAR and TAF weather

Enter ICAO airport designator
Station Type Date Time Source
AYNZ METAR 2020/04/04 06:00 UTC NOAA

AYNZ 040600Z 10015KT 9999 SCT050 SCT150 31/24 Q1005


Station Type Date Time Source
AYNZ Decoded METAR 2020/04/04 06:00 UTC NOAA

Station name not available
Apr 04, 2020 - 02:00 AM EDT / 2020.04.04 0600 UTC
Wind: from the E (100 degrees) at 17 MPH (15 KT):0
Visibility: greater than 7 mile(s):0
Sky conditions: partly cloudy
Temperature: 87 F (31 C)
Heat index: 95.7 F (35.4 C):1
Dew Point: 75 F (24 C)
Relative Humidity: 66%
Pressure (altimeter): 29.68 in. Hg (1005 hPa)
ob: AYNZ 040600Z 10015KT 9999 SCT050 SCT150 31/24 Q1005
cycle: 6

Station Type Date Time Source
AYNZ TAF 2015/08/19 08:15 UTC NOAA

TAF AYNZ 190550Z 1908/1920 09015KT 9999 SCT020 SCT120
FM191400 VRB03KT 9999 BKN040 Q 1011 1014 1013 1010

Example: see airport list